Portland Hillsboro Airport Portland US
ICAO: KHIO
IATA: HIO
Category: Medium
Scheduled Services: No

Elevation: 208 ft
TransAlt. 18000 ft.

Airport Communications:
APP/DEP:126
ATIS:127.65
CTAF:119.3
GND:121.7
HILLSBORO TWR:119.3
UNICOM:122.95

KHIO Zoom In..

Runways:

(A) RW 02 length 4050 ft width 100 ft
---- / hdg 23

(B) RW 13 length 6600 ft width 150 ft
ILS 110.70 / hdg 127

(C) RW 20 length 4050 ft width 100 ft
---- / hdg 203

(D) RW 31 length 6600 ft width 150 ft
---- / hdg 307

Location; KHIO
Day. 08 / Time. 04.53 Zulu
* Altimeter: 30.22
* Temperature: 09° c. 48.2°f.
* Wind from: 320° Speed 08 kn.
Dewpoint: 04° c.
Visibility: 10 Statute Miles.
Clouds: Clear (automated report).

KHIO 080453Z 32008KT 10SM CLR 09/04 A3022 RMK AO2 SLP233 T00940044


Wind From 320°
Speed 08 kn.

 
 
jpsmedia worldairports.se 2020   terms of use